sensor_id;sensor_type;location;lat;lon;timestamp;temperature;humidity
36556;DHT22;40859;50.560;7.268;2022-07-26T00:01:32;26.70;99.90
36556;DHT22;40859;50.560;7.268;2022-07-26T00:03:59;26.70;99.90
36556;DHT22;40859;50.560;7.268;2022-07-26T00:06:25;26.60;99.90
36556;DHT22;40859;50.560;7.268;2022-07-26T00:08:51;26.60;99.90
36556;DHT22;40859;50.560;7.268;2022-07-26T00:11:18;26.60;99.90
36556;DHT22;40859;50.560;7.268;2022-07-26T00:13:44;26.70;99.90
36556;DHT22;40859;50.560;7.268;2022-07-26T00:16:11;26.60;99.90
36556;DHT22;40859;50.560;7.268;2022-07-26T00:18:37;26.60;99.90
36556;DHT22;40859;50.560;7.268;2022-07-26T00:21:03;26.70;99.90
36556;DHT22;40859;50.560;7.268;2022-07-26T00:23:29;26.70;99.90
36556;DHT22;40859;50.560;7.268;2022-07-26T00:25:54;26.60;99.90
36556;DHT22;40859;50.560;7.268;2022-07-26T00:28:20;26.60;99.90
36556;DHT22;40859;50.560;7.268;2022-07-26T00:30:46;26.60;99.90
36556;DHT22;40859;50.560;7.268;2022-07-26T00:33:12;26.60;99.90
36556;DHT22;40859;50.560;7.268;2022-07-26T00:35:38;26.60;99.90
36556;DHT22;40859;50.560;7.268;2022-07-26T00:38:04;26.60;99.90
36556;DHT22;40859;50.560;7.268;2022-07-26T00:40:30;26.60;99.90
36556;DHT22;40859;50.560;7.268;2022-07-26T00:42:56;26.60;99.90
36556;DHT22;40859;50.560;7.268;2022-07-26T00:45:22;26.60;99.90
36556;DHT22;40859;50.560;7.268;2022-07-26T00:47:49;26.60;99.90
36556;DHT22;40859;50.560;7.268;2022-07-26T00:50:17;26.60;99.90
36556;DHT22;40859;50.560;7.268;2022-07-26T00:52:45;26.60;99.90
36556;DHT22;40859;50.560;7.268;2022-07-26T00:55:12;26.60;99.90
36556;DHT22;40859;50.560;7.268;2022-07-26T00:57:38;26.60;99.90
36556;DHT22;40859;50.560;7.268;2022-07-26T01:00:07;26.60;99.90
36556;DHT22;40859;50.560;7.268;2022-07-26T01:02:33;26.60;99.90
36556;DHT22;40859;50.560;7.268;2022-07-26T01:04:59;26.60;99.90
36556;DHT22;40859;50.560;7.268;2022-07-26T01:07:25;26.60;99.90
36556;DHT22;40859;50.560;7.268;2022-07-26T01:09:51;26.60;99.90
36556;DHT22;40859;50.560;7.268;2022-07-26T01:12:17;26.50;99.90
36556;DHT22;40859;50.560;7.268;2022-07-26T01:14:44;26.60;99.90
36556;DHT22;40859;50.560;7.268;2022-07-26T01:17:11;26.60;99.90
36556;DHT22;40859;50.560;7.268;2022-07-26T01:19:37;26.50;99.90
36556;DHT22;40859;50.560;7.268;2022-07-26T01:22:04;26.50;99.90
36556;DHT22;40859;50.560;7.268;2022-07-26T01:24:30;26.60;99.90
36556;DHT22;40859;50.560;7.268;2022-07-26T01:26:56;26.60;99.90
36556;DHT22;40859;50.560;7.268;2022-07-26T01:29:23;26.50;99.90
36556;DHT22;40859;50.560;7.268;2022-07-26T01:31:49;26.50;99.90
36556;DHT22;40859;50.560;7.268;2022-07-26T01:34:15;26.50;99.90
36556;DHT22;40859;50.560;7.268;2022-07-26T01:36:41;26.50;99.90
36556;DHT22;40859;50.560;7.268;2022-07-26T01:39:07;26.50;99.90
36556;DHT22;40859;50.560;7.268;2022-07-26T01:41:33;26.50;99.90
36556;DHT22;40859;50.560;7.268;2022-07-26T01:43:59;26.50;99.90
36556;DHT22;40859;50.560;7.268;2022-07-26T01:46:25;26.60;99.90
36556;DHT22;40859;50.560;7.268;2022-07-26T01:48:51;26.50;99.90
36556;DHT22;40859;50.560;7.268;2022-07-26T01:51:17;26.50;99.90
36556;DHT22;40859;50.560;7.268;2022-07-26T01:53:42;26.50;99.90
36556;DHT22;40859;50.560;7.268;2022-07-26T01:56:13;26.50;99.90
36556;DHT22;40859;50.560;7.268;2022-07-26T01:58:39;26.50;99.90
36556;DHT22;40859;50.560;7.268;2022-07-26T02:01:06;26.50;99.90
36556;DHT22;40859;50.560;7.268;2022-07-26T02:03:33;26.50;99.90
36556;DHT22;40859;50.560;7.268;2022-07-26T02:05:59;26.50;99.90
36556;DHT22;40859;50.560;7.268;2022-07-26T02:08:24;26.50;99.90
36556;DHT22;40859;50.560;7.268;2022-07-26T02:10:51;26.50;99.90
36556;DHT22;40859;50.560;7.268;2022-07-26T02:13:37;26.50;99.90
36556;DHT22;40859;50.560;7.268;2022-07-26T02:16:05;26.50;99.90
36556;DHT22;40859;50.560;7.268;2022-07-26T02:18:31;26.50;99.90
36556;DHT22;40859;50.560;7.268;2022-07-26T02:20:59;26.50;99.90
36556;DHT22;40859;50.560;7.268;2022-07-26T02:23:26;26.50;99.90
36556;DHT22;40859;50.560;7.268;2022-07-26T02:25:53;26.40;99.90
36556;DHT22;40859;50.560;7.268;2022-07-26T02:28:20;26.50;99.90
36556;DHT22;40859;50.560;7.268;2022-07-26T02:30:47;26.40;99.90
36556;DHT22;40859;50.560;7.268;2022-07-26T02:33:13;26.50;99.90
36556;DHT22;40859;50.560;7.268;2022-07-26T02:35:40;26.40;99.90
36556;DHT22;40859;50.560;7.268;2022-07-26T02:38:09;26.40;99.90
36556;DHT22;40859;50.560;7.268;2022-07-26T02:40:36;26.40;99.90
36556;DHT22;40859;50.560;7.268;2022-07-26T02:43:03;26.40;99.90
36556;DHT22;40859;50.560;7.268;2022-07-26T02:45:29;26.50;99.90
36556;DHT22;40859;50.560;7.268;2022-07-26T02:47:55;26.40;99.90
36556;DHT22;40859;50.560;7.268;2022-07-26T02:50:24;26.40;99.90
36556;DHT22;40859;50.560;7.268;2022-07-26T02:52:51;26.50;99.90
36556;DHT22;40859;50.560;7.268;2022-07-26T02:55:19;26.40;99.90
36556;DHT22;40859;50.560;7.268;2022-07-26T02:57:45;26.40;99.90
36556;DHT22;40859;50.560;7.268;2022-07-26T03:00:14;26.40;99.90
36556;DHT22;40859;50.560;7.268;2022-07-26T03:02:41;26.40;99.90
36556;DHT22;40859;50.560;7.268;2022-07-26T03:05:07;26.40;99.90
36556;DHT22;40859;50.560;7.268;2022-07-26T03:07:33;26.40;99.90
36556;DHT22;40859;50.560;7.268;2022-07-26T03:09:59;26.40;99.90
36556;DHT22;40859;50.560;7.268;2022-07-26T03:12:25;26.40;99.90
36556;DHT22;40859;50.560;7.268;2022-07-26T03:14:52;26.40;99.90
36556;DHT22;40859;50.560;7.268;2022-07-26T03:17:18;26.40;99.90
36556;DHT22;40859;50.560;7.268;2022-07-26T03:19:44;26.40;99.90
36556;DHT22;40859;50.560;7.268;2022-07-26T03:22:10;26.40;99.90
36556;DHT22;40859;50.560;7.268;2022-07-26T03:24:36;26.40;99.90
36556;DHT22;40859;50.560;7.268;2022-07-26T03:27:02;26.40;99.90
36556;DHT22;40859;50.560;7.268;2022-07-26T03:29:28;26.40;99.90
36556;DHT22;40859;50.560;7.268;2022-07-26T03:31:54;26.30;99.90
36556;DHT22;40859;50.560;7.268;2022-07-26T03:34:20;26.30;99.90
36556;DHT22;40859;50.560;7.268;2022-07-26T03:36:46;26.30;99.90
36556;DHT22;40859;50.560;7.268;2022-07-26T03:39:12;26.30;99.90
36556;DHT22;40859;50.560;7.268;2022-07-26T03:41:37;26.30;99.90
36556;DHT22;40859;50.560;7.268;2022-07-26T03:44:03;26.30;99.90
36556;DHT22;40859;50.560;7.268;2022-07-26T03:46:29;26.30;99.90
36556;DHT22;40859;50.560;7.268;2022-07-26T03:48:55;26.30;99.90
36556;DHT22;40859;50.560;7.268;2022-07-26T03:51:21;26.30;99.90
36556;DHT22;40859;50.560;7.268;2022-07-26T03:53:48;26.30;99.90
36556;DHT22;40859;50.560;7.268;2022-07-26T03:56:14;26.30;99.90
36556;DHT22;40859;50.560;7.268;2022-07-26T03:59:06;26.30;99.90
36556;DHT22;40859;50.560;7.268;2022-07-26T04:01:34;26.30;99.90
36556;DHT22;40859;50.560;7.268;2022-07-26T04:04:00;26.30;99.90
36556;DHT22;40859;50.560;7.268;2022-07-26T04:06:26;26.30;99.90
36556;DHT22;40859;50.560;7.268;2022-07-26T04:08:53;26.10;99.90
36556;DHT22;40859;50.560;7.268;2022-07-26T04:11:19;26.20;99.90
36556;DHT22;40859;50.560;7.268;2022-07-26T04:13:45;26.20;99.90
36556;DHT22;40859;50.560;7.268;2022-07-26T04:16:11;26.20;99.90
36556;DHT22;40859;50.560;7.268;2022-07-26T04:18:37;26.00;99.90
36556;DHT22;40859;50.560;7.268;2022-07-26T04:21:03;26.10;99.90
36556;DHT22;40859;50.560;7.268;2022-07-26T04:23:29;26.10;99.90
36556;DHT22;40859;50.560;7.268;2022-07-26T04:25:55;26.10;99.90
36556;DHT22;40859;50.560;7.268;2022-07-26T04:28:21;26.10;99.90
36556;DHT22;40859;50.560;7.268;2022-07-26T04:30:48;26.20;99.90
36556;DHT22;40859;50.560;7.268;2022-07-26T04:33:14;26.20;99.90
36556;DHT22;40859;50.560;7.268;2022-07-26T04:35:40;26.10;99.90
36556;DHT22;40859;50.560;7.268;2022-07-26T04:38:06;26.10;99.90
36556;DHT22;40859;50.560;7.268;2022-07-26T04:40:32;26.10;99.90
36556;DHT22;40859;50.560;7.268;2022-07-26T04:42:59;26.00;99.90
36556;DHT22;40859;50.560;7.268;2022-07-26T04:45:26;25.90;99.90
36556;DHT22;40859;50.560;7.268;2022-07-26T04:47:52;25.90;99.90
36556;DHT22;40859;50.560;7.268;2022-07-26T04:50:19;25.90;99.90
36556;DHT22;40859;50.560;7.268;2022-07-26T04:52:45;25.90;99.90
36556;DHT22;40859;50.560;7.268;2022-07-26T04:55:12;25.90;99.90
36556;DHT22;40859;50.560;7.268;2022-07-26T04:57:38;26.00;99.90
36556;DHT22;40859;50.560;7.268;2022-07-26T05:00:06;26.00;99.90
36556;DHT22;40859;50.560;7.268;2022-07-26T05:02:32;26.00;99.90
36556;DHT22;40859;50.560;7.268;2022-07-26T05:04:58;26.00;99.90
36556;DHT22;40859;50.560;7.268;2022-07-26T05:07:24;26.10;99.90
36556;DHT22;40859;50.560;7.268;2022-07-26T05:09:50;26.00;99.90
36556;DHT22;40859;50.560;7.268;2022-07-26T05:12:16;26.10;99.90
36556;DHT22;40859;50.560;7.268;2022-07-26T05:14:41;26.00;99.90
36556;DHT22;40859;50.560;7.268;2022-07-26T05:17:09;26.00;99.90
36556;DHT22;40859;50.560;7.268;2022-07-26T05:19:36;26.10;99.90
36556;DHT22;40859;50.560;7.268;2022-07-26T05:22:02;26.00;99.90
36556;DHT22;40859;50.560;7.268;2022-07-26T05:24:28;26.00;99.90
36556;DHT22;40859;50.560;7.268;2022-07-26T05:26:54;26.00;99.90
36556;DHT22;40859;50.560;7.268;2022-07-26T05:29:20;26.00;99.90
36556;DHT22;40859;50.560;7.268;2022-07-26T05:31:46;26.00;99.90
36556;DHT22;40859;50.560;7.268;2022-07-26T05:34:11;26.00;99.90
36556;DHT22;40859;50.560;7.268;2022-07-26T05:36:39;26.00;99.90
36556;DHT22;40859;50.560;7.268;2022-07-26T05:39:06;26.00;99.90
36556;DHT22;40859;50.560;7.268;2022-07-26T05:41:32;26.00;99.90
36556;DHT22;40859;50.560;7.268;2022-07-26T05:43:57;26.00;99.90
36556;DHT22;40859;50.560;7.268;2022-07-26T05:46:23;26.00;99.90
36556;DHT22;40859;50.560;7.268;2022-07-26T05:48:49;26.00;99.90
36556;DHT22;40859;50.560;7.268;2022-07-26T05:51:15;26.00;99.90
36556;DHT22;40859;50.560;7.268;2022-07-26T05:53:41;26.00;99.90
36556;DHT22;40859;50.560;7.268;2022-07-26T05:56:07;26.00;99.90
36556;DHT22;40859;50.560;7.268;2022-07-26T05:58:33;26.00;99.90
36556;DHT22;40859;50.560;7.268;2022-07-26T06:00:59;26.00;99.90
36556;DHT22;40859;50.560;7.268;2022-07-26T06:03:25;26.00;99.90
36556;DHT22;40859;50.560;7.268;2022-07-26T06:05:56;26.00;99.90
36556;DHT22;40859;50.560;7.268;2022-07-26T06:08:24;26.00;99.90
36556;DHT22;40859;50.560;7.268;2022-07-26T06:10:50;26.00;99.90
36556;DHT22;40859;50.560;7.268;2022-07-26T06:13:17;26.00;99.90
36556;DHT22;40859;50.560;7.268;2022-07-26T06:15:44;26.00;99.90
36556;DHT22;40859;50.560;7.268;2022-07-26T06:18:10;26.00;99.90
36556;DHT22;40859;50.560;7.268;2022-07-26T06:20:40;26.00;99.90
36556;DHT22;40859;50.560;7.268;2022-07-26T06:23:06;26.00;99.90
36556;DHT22;40859;50.560;7.268;2022-07-26T06:25:33;26.00;99.90
36556;DHT22;40859;50.560;7.268;2022-07-26T06:28:07;26.00;99.90
36556;DHT22;40859;50.560;7.268;2022-07-26T06:30:34;26.00;99.90
36556;DHT22;40859;50.560;7.268;2022-07-26T06:33:00;26.00;99.90
36556;DHT22;40859;50.560;7.268;2022-07-26T06:35:27;26.00;99.90
36556;DHT22;40859;50.560;7.268;2022-07-26T06:37:56;26.00;99.90
36556;DHT22;40859;50.560;7.268;2022-07-26T06:40:22;26.00;99.90
36556;DHT22;40859;50.560;7.268;2022-07-26T06:42:48;26.00;99.90
36556;DHT22;40859;50.560;7.268;2022-07-26T06:45:14;26.00;99.90
36556;DHT22;40859;50.560;7.268;2022-07-26T06:47:40;26.00;99.90
36556;DHT22;40859;50.560;7.268;2022-07-26T06:50:07;26.00;99.90
36556;DHT22;40859;50.560;7.268;2022-07-26T06:52:33;26.00;99.90
36556;DHT22;40859;50.560;7.268;2022-07-26T06:54:59;26.00;99.90
36556;DHT22;40859;50.560;7.268;2022-07-26T06:57:26;26.00;99.90
36556;DHT22;40859;50.560;7.268;2022-07-26T06:59:52;26.00;99.90
36556;DHT22;40859;50.560;7.268;2022-07-26T07:02:18;26.00;99.90
36556;DHT22;40859;50.560;7.268;2022-07-26T07:04:44;26.00;99.90
36556;DHT22;40859;50.560;7.268;2022-07-26T07:07:10;26.00;99.90
36556;DHT22;40859;50.560;7.268;2022-07-26T07:09:36;26.00;99.90
36556;DHT22;40859;50.560;7.268;2022-07-26T07:12:03;25.90;99.90
36556;DHT22;40859;50.560;7.268;2022-07-26T07:14:29;26.00;99.90
36556;DHT22;40859;50.560;7.268;2022-07-26T07:16:55;26.00;99.90
36556;DHT22;40859;50.560;7.268;2022-07-26T07:19:22;26.00;99.90
36556;DHT22;40859;50.560;7.268;2022-07-26T07:21:48;26.00;99.90
36556;DHT22;40859;50.560;7.268;2022-07-26T07:24:14;25.90;99.90
36556;DHT22;40859;50.560;7.268;2022-07-26T07:26:40;26.00;99.90
36556;DHT22;40859;50.560;7.268;2022-07-26T07:29:07;25.90;99.90
36556;DHT22;40859;50.560;7.268;2022-07-26T07:31:36;25.90;99.90
36556;DHT22;40859;50.560;7.268;2022-07-26T07:34:03;25.90;99.90
36556;DHT22;40859;50.560;7.268;2022-07-26T07:36:28;25.90;99.90
36556;DHT22;40859;50.560;7.268;2022-07-26T07:38:54;25.90;99.90
36556;DHT22;40859;50.560;7.268;2022-07-26T07:41:20;25.90;99.90
36556;DHT22;40859;50.560;7.268;2022-07-26T07:43:46;25.90;99.90
36556;DHT22;40859;50.560;7.268;2022-07-26T07:46:12;25.90;99.90
36556;DHT22;40859;50.560;7.268;2022-07-26T07:48:39;25.90;99.90
36556;DHT22;40859;50.560;7.268;2022-07-26T07:51:08;25.90;99.90
36556;DHT22;40859;50.560;7.268;2022-07-26T07:53:33;25.90;99.90
36556;DHT22;40859;50.560;7.268;2022-07-26T07:56:00;25.90;99.90
36556;DHT22;40859;50.560;7.268;2022-07-26T07:58:26;25.90;99.90
36556;DHT22;40859;50.560;7.268;2022-07-26T08:00:52;25.90;99.90
36556;DHT22;40859;50.560;7.268;2022-07-26T08:03:18;25.90;99.90
36556;DHT22;40859;50.560;7.268;2022-07-26T08:05:46;25.90;99.90
36556;DHT22;40859;50.560;7.268;2022-07-26T08:08:11;25.90;99.90
36556;DHT22;40859;50.560;7.268;2022-07-26T08:10:38;25.90;99.90
36556;DHT22;40859;50.560;7.268;2022-07-26T08:13:04;25.90;99.90
36556;DHT22;40859;50.560;7.268;2022-07-26T08:15:29;25.90;99.90
36556;DHT22;40859;50.560;7.268;2022-07-26T08:17:55;25.90;99.90
36556;DHT22;40859;50.560;7.268;2022-07-26T08:20:22;25.90;99.90
36556;DHT22;40859;50.560;7.268;2022-07-26T08:22:47;25.80;99.90
36556;DHT22;40859;50.560;7.268;2022-07-26T08:25:13;25.80;99.90
36556;DHT22;40859;50.560;7.268;2022-07-26T08:27:39;25.90;99.90
36556;DHT22;40859;50.560;7.268;2022-07-26T08:30:05;25.90;99.90
36556;DHT22;40859;50.560;7.268;2022-07-26T08:32:31;25.90;99.90
36556;DHT22;40859;50.560;7.268;2022-07-26T08:34:57;25.90;99.90
36556;DHT22;40859;50.560;7.268;2022-07-26T08:37:23;25.90;99.90
36556;DHT22;40859;50.560;7.268;2022-07-26T08:39:50;25.90;99.90
36556;DHT22;40859;50.560;7.268;2022-07-26T08:42:17;25.80;99.90
36556;DHT22;40859;50.560;7.268;2022-07-26T08:44:44;25.80;99.90
36556;DHT22;40859;50.560;7.268;2022-07-26T08:47:12;25.80;99.90
36556;DHT22;40859;50.560;7.268;2022-07-26T08:49:39;25.80;99.90
36556;DHT22;40859;50.560;7.268;2022-07-26T08:52:06;25.80;99.90
36556;DHT22;40859;50.560;7.268;2022-07-26T08:54:32;25.80;99.90
36556;DHT22;40859;50.560;7.268;2022-07-26T08:56:58;25.80;99.90
36556;DHT22;40859;50.560;7.268;2022-07-26T08:59:25;25.80;99.90
36556;DHT22;40859;50.560;7.268;2022-07-26T09:01:59;25.80;99.90
36556;DHT22;40859;50.560;7.268;2022-07-26T09:04:37;25.80;99.90
36556;DHT22;40859;50.560;7.268;2022-07-26T09:07:08;25.80;99.90
36556;DHT22;40859;50.560;7.268;2022-07-26T09:09:49;25.80;99.90
36556;DHT22;40859;50.560;7.268;2022-07-26T09:12:22;25.90;99.90
36556;DHT22;40859;50.560;7.268;2022-07-26T09:14:49;25.90;99.90
36556;DHT22;40859;50.560;7.268;2022-07-26T09:17:16;25.80;99.90
36556;DHT22;40859;50.560;7.268;2022-07-26T09:20:10;25.90;99.90
36556;DHT22;40859;50.560;7.268;2022-07-26T09:23:05;25.90;99.90
36556;DHT22;40859;50.560;7.268;2022-07-26T09:25:37;25.80;99.90
36556;DHT22;40859;50.560;7.268;2022-07-26T09:28:23;25.80;99.90
36556;DHT22;40859;50.560;7.268;2022-07-26T09:30:55;25.90;99.90
36556;DHT22;40859;50.560;7.268;2022-07-26T09:33:21;25.90;99.90
36556;DHT22;40859;50.560;7.268;2022-07-26T09:36:09;25.90;99.90
36556;DHT22;40859;50.560;7.268;2022-07-26T09:38:42;25.80;99.90
36556;DHT22;40859;50.560;7.268;2022-07-26T09:41:23;25.80;99.90
36556;DHT22;40859;50.560;7.268;2022-07-26T09:43:50;25.90;99.90
36556;DHT22;40859;50.560;7.268;2022-07-26T09:46:16;25.90;99.90
36556;DHT22;40859;50.560;7.268;2022-07-26T09:48:42;25.90;99.90
36556;DHT22;40859;50.560;7.268;2022-07-26T09:51:09;25.90;99.90
36556;DHT22;40859;50.560;7.268;2022-07-26T09:53:44;25.90;99.90
36556;DHT22;40859;50.560;7.268;2022-07-26T09:56:11;25.80;99.90
36556;DHT22;40859;50.560;7.268;2022-07-26T09:58:38;25.90;99.90
36556;DHT22;40859;50.560;7.268;2022-07-26T10:01:04;25.90;99.90
36556;DHT22;40859;50.560;7.268;2022-07-26T10:03:31;25.80;99.90
36556;DHT22;40859;50.560;7.268;2022-07-26T10:05:59;25.80;99.90
36556;DHT22;40859;50.560;7.268;2022-07-26T10:08:25;25.90;99.90
36556;DHT22;40859;50.560;7.268;2022-07-26T10:11:07;25.90;99.90
36556;DHT22;40859;50.560;7.268;2022-07-26T10:13:34;25.90;99.90
36556;DHT22;40859;50.560;7.268;2022-07-26T10:16:00;25.80;99.90
36556;DHT22;40859;50.560;7.268;2022-07-26T10:19:39;25.80;99.90
36556;DHT22;40859;50.560;7.268;2022-07-26T10:22:32;25.80;99.90
36556;DHT22;40859;50.560;7.268;2022-07-26T10:31:47;25.80;99.90
36556;DHT22;40859;50.560;7.268;2022-07-26T10:34:37;25.90;99.90
36556;DHT22;40859;50.560;7.268;2022-07-26T10:37:05;25.80;99.90
36556;DHT22;40859;50.560;7.268;2022-07-26T10:39:32;25.80;99.90
36556;DHT22;40859;50.560;7.268;2022-07-26T10:42:03;25.80;99.90
36556;DHT22;40859;50.560;7.268;2022-07-26T10:44:31;25.90;99.90
36556;DHT22;40859;50.560;7.268;2022-07-26T10:52:36;25.80;99.90
36556;DHT22;40859;50.560;7.268;2022-07-26T10:55:05;25.80;99.90
36556;DHT22;40859;50.560;7.268;2022-07-26T10:57:42;25.80;99.90
36556;DHT22;40859;50.560;7.268;2022-07-26T11:00:17;25.80;99.90
36556;DHT22;40859;50.560;7.268;2022-07-26T11:02:47;25.80;99.90
36556;DHT22;40859;50.560;7.268;2022-07-26T11:05:16;25.80;99.90
36556;DHT22;40859;50.560;7.268;2022-07-26T11:08:03;25.80;99.90
36556;DHT22;40859;50.560;7.268;2022-07-26T11:10:39;25.80;99.90
36556;DHT22;40859;50.560;7.268;2022-07-26T11:13:38;25.80;99.90
36556;DHT22;40859;50.560;7.268;2022-07-26T11:16:07;25.80;99.90
36556;DHT22;40859;50.560;7.268;2022-07-26T11:18:35;25.80;99.90
36556;DHT22;40859;50.560;7.268;2022-07-26T11:21:14;25.80;99.90
36556;DHT22;40859;50.560;7.268;2022-07-26T11:23:43;25.80;99.90
36556;DHT22;40859;50.560;7.268;2022-07-26T11:26:19;25.80;99.90
36556;DHT22;40859;50.560;7.268;2022-07-26T11:29:00;25.80;99.90
36556;DHT22;40859;50.560;7.268;2022-07-26T11:31:43;25.80;99.90
36556;DHT22;40859;50.560;7.268;2022-07-26T11:34:22;25.80;99.90
36556;DHT22;40859;50.560;7.268;2022-07-26T11:36:50;25.80;99.90
36556;DHT22;40859;50.560;7.268;2022-07-26T11:39:26;25.80;99.90
36556;DHT22;40859;50.560;7.268;2022-07-26T11:42:07;25.80;99.90
36556;DHT22;40859;50.560;7.268;2022-07-26T11:44:34;25.80;99.90
36556;DHT22;40859;50.560;7.268;2022-07-26T11:47:14;25.90;99.90
36556;DHT22;40859;50.560;7.268;2022-07-26T11:49:41;25.90;99.90
36556;DHT22;40859;50.560;7.268;2022-07-26T11:52:07;25.90;99.90
36556;DHT22;40859;50.560;7.268;2022-07-26T11:54:51;25.90;99.90
36556;DHT22;40859;50.560;7.268;2022-07-26T11:57:18;25.90;99.90
36556;DHT22;40859;50.560;7.268;2022-07-26T11:59:46;25.90;99.90
36556;DHT22;40859;50.560;7.268;2022-07-26T12:02:12;25.90;99.90
36556;DHT22;40859;50.560;7.268;2022-07-26T12:04:41;25.90;99.90
36556;DHT22;40859;50.560;7.268;2022-07-26T12:07:12;25.90;99.90
36556;DHT22;40859;50.560;7.268;2022-07-26T12:09:41;25.80;99.90
36556;DHT22;40859;50.560;7.268;2022-07-26T12:12:09;25.90;99.90
36556;DHT22;40859;50.560;7.268;2022-07-26T12:15:04;25.90;99.90
36556;DHT22;40859;50.560;7.268;2022-07-26T12:17:31;25.90;99.90
36556;DHT22;40859;50.560;7.268;2022-07-26T12:20:13;25.90;99.90
36556;DHT22;40859;50.560;7.268;2022-07-26T12:22:40;25.90;99.90
36556;DHT22;40859;50.560;7.268;2022-07-26T12:25:07;25.90;99.90
36556;DHT22;40859;50.560;7.268;2022-07-26T12:27:33;25.90;99.90
36556;DHT22;40859;50.560;7.268;2022-07-26T12:30:16;25.90;99.90
36556;DHT22;40859;50.560;7.268;2022-07-26T12:32:44;25.90;99.90
36556;DHT22;40859;50.560;7.268;2022-07-26T12:35:15;25.90;99.90
36556;DHT22;40859;50.560;7.268;2022-07-26T12:37:50;25.90;99.90
36556;DHT22;40859;50.560;7.268;2022-07-26T12:40:23;25.90;99.90
36556;DHT22;40859;50.560;7.268;2022-07-26T12:43:00;25.90;99.90
36556;DHT22;40859;50.560;7.268;2022-07-26T12:45:30;25.90;99.90
36556;DHT22;40859;50.560;7.268;2022-07-26T12:47:57;25.90;99.90
36556;DHT22;40859;50.560;7.268;2022-07-26T12:50:26;25.90;99.90
36556;DHT22;40859;50.560;7.268;2022-07-26T12:52:58;25.90;99.90
36556;DHT22;40859;50.560;7.268;2022-07-26T12:55:25;25.90;99.90
36556;DHT22;40859;50.560;7.268;2022-07-26T12:57:52;25.90;99.90
36556;DHT22;40859;50.560;7.268;2022-07-26T13:00:18;25.90;99.90
36556;DHT22;40859;50.560;7.268;2022-07-26T13:02:45;25.90;99.90
36556;DHT22;40859;50.560;7.268;2022-07-26T13:05:11;25.90;99.90
36556;DHT22;40859;50.560;7.268;2022-07-26T13:07:38;25.90;99.90
36556;DHT22;40859;50.560;7.268;2022-07-26T13:10:08;25.90;99.90
36556;DHT22;40859;50.560;7.268;2022-07-26T13:12:35;25.90;99.90
36556;DHT22;40859;50.560;7.268;2022-07-26T13:15:01;25.90;99.90
36556;DHT22;40859;50.560;7.268;2022-07-26T13:17:27;25.90;99.90
36556;DHT22;40859;50.560;7.268;2022-07-26T13:19:53;25.90;99.90
36556;DHT22;40859;50.560;7.268;2022-07-26T13:22:19;25.90;99.90
36556;DHT22;40859;50.560;7.268;2022-07-26T13:24:46;25.90;99.90
36556;DHT22;40859;50.560;7.268;2022-07-26T13:27:11;25.90;99.90
36556;DHT22;40859;50.560;7.268;2022-07-26T13:29:37;25.90;99.90
36556;DHT22;40859;50.560;7.268;2022-07-26T13:32:04;25.90;99.90
36556;DHT22;40859;50.560;7.268;2022-07-26T13:34:30;25.90;99.90
36556;DHT22;40859;50.560;7.268;2022-07-26T13:36:57;26.00;99.90
36556;DHT22;40859;50.560;7.268;2022-07-26T13:39:27;26.00;99.90
36556;DHT22;40859;50.560;7.268;2022-07-26T13:41:56;26.00;99.90
36556;DHT22;40859;50.560;7.268;2022-07-26T13:44:22;26.00;99.90
36556;DHT22;40859;50.560;7.268;2022-07-26T13:46:49;25.90;99.90
36556;DHT22;40859;50.560;7.268;2022-07-26T13:49:15;26.00;99.90
36556;DHT22;40859;50.560;7.268;2022-07-26T13:51:40;26.00;99.90
36556;DHT22;40859;50.560;7.268;2022-07-26T13:54:27;25.90;99.90
36556;DHT22;40859;50.560;7.268;2022-07-26T13:56:54;26.00;99.90
36556;DHT22;40859;50.560;7.268;2022-07-26T13:59:21;26.00;99.90
36556;DHT22;40859;50.560;7.268;2022-07-26T14:01:47;25.90;99.90
36556;DHT22;40859;50.560;7.268;2022-07-26T14:04:13;26.00;99.90
36556;DHT22;40859;50.560;7.268;2022-07-26T14:06:39;26.00;99.90
36556;DHT22;40859;50.560;7.268;2022-07-26T14:09:06;26.00;99.90
36556;DHT22;40859;50.560;7.268;2022-07-26T14:11:34;26.00;99.90
36556;DHT22;40859;50.560;7.268;2022-07-26T14:14:00;26.00;99.90
36556;DHT22;40859;50.560;7.268;2022-07-26T14:16:29;26.00;99.90
36556;DHT22;40859;50.560;7.268;2022-07-26T14:18:59;26.00;99.90
36556;DHT22;40859;50.560;7.268;2022-07-26T14:21:29;26.00;99.90
36556;DHT22;40859;50.560;7.268;2022-07-26T14:23:56;26.00;99.90
36556;DHT22;40859;50.560;7.268;2022-07-26T14:26:22;26.00;99.90
36556;DHT22;40859;50.560;7.268;2022-07-26T14:28:49;26.00;99.90
36556;DHT22;40859;50.560;7.268;2022-07-26T14:31:15;26.00;99.90
36556;DHT22;40859;50.560;7.268;2022-07-26T14:33:41;26.00;99.90
36556;DHT22;40859;50.560;7.268;2022-07-26T14:36:07;26.00;99.90
36556;DHT22;40859;50.560;7.268;2022-07-26T14:38:35;26.00;99.90
36556;DHT22;40859;50.560;7.268;2022-07-26T14:41:02;26.00;99.90
36556;DHT22;40859;50.560;7.268;2022-07-26T14:43:28;26.00;99.90
36556;DHT22;40859;50.560;7.268;2022-07-26T14:45:54;26.00;99.90
36556;DHT22;40859;50.560;7.268;2022-07-26T14:48:19;26.00;99.90
36556;DHT22;40859;50.560;7.268;2022-07-26T14:50:45;26.00;99.90
36556;DHT22;40859;50.560;7.268;2022-07-26T14:53:12;26.00;99.90
36556;DHT22;40859;50.560;7.268;2022-07-26T14:55:39;26.00;99.90
36556;DHT22;40859;50.560;7.268;2022-07-26T14:58:05;26.00;99.90
36556;DHT22;40859;50.560;7.268;2022-07-26T15:00:31;26.00;99.90
36556;DHT22;40859;50.560;7.268;2022-07-26T15:02:56;26.00;99.90
36556;DHT22;40859;50.560;7.268;2022-07-26T15:05:22;26.00;99.90
36556;DHT22;40859;50.560;7.268;2022-07-26T15:07:49;26.00;99.90
36556;DHT22;40859;50.560;7.268;2022-07-26T15:10:16;25.90;99.90
36556;DHT22;40859;50.560;7.268;2022-07-26T15:12:42;26.00;99.90
36556;DHT22;40859;50.560;7.268;2022-07-26T15:15:09;26.00;99.90
36556;DHT22;40859;50.560;7.268;2022-07-26T15:17:35;26.00;99.90
36556;DHT22;40859;50.560;7.268;2022-07-26T15:20:02;26.00;99.90
36556;DHT22;40859;50.560;7.268;2022-07-26T15:22:29;26.00;99.90
36556;DHT22;40859;50.560;7.268;2022-07-26T15:24:55;25.90;99.70
36556;DHT22;40859;50.560;7.268;2022-07-26T15:27:21;26.00;99.90
36556;DHT22;40859;50.560;7.268;2022-07-26T15:29:47;26.00;99.60
36556;DHT22;40859;50.560;7.268;2022-07-26T15:32:15;26.00;99.90
36556;DHT22;40859;50.560;7.268;2022-07-26T15:34:40;26.00;99.90
36556;DHT22;40859;50.560;7.268;2022-07-26T15:37:06;26.00;99.40
36556;DHT22;40859;50.560;7.268;2022-07-26T15:39:32;26.00;99.80
36556;DHT22;40859;50.560;7.268;2022-07-26T15:41:59;26.00;99.70
36556;DHT22;40859;50.560;7.268;2022-07-26T15:44:25;26.00;99.90
36556;DHT22;40859;50.560;7.268;2022-07-26T15:46:51;26.00;99.50
36556;DHT22;40859;50.560;7.268;2022-07-26T15:49:17;26.00;99.10